sensor_id;sensor_type;location;lat;lon;timestamp;temperature;humidity
29687;DHT22;16599;47.078;15.536;2024-03-23T00:56:07;6.90;99.90
29687;DHT22;16599;47.078;15.536;2024-03-23T00:58:33;7.00;99.90
29687;DHT22;16599;47.078;15.536;2024-03-23T01:00:59;7.10;99.90
29687;DHT22;16599;47.078;15.536;2024-03-23T01:03:24;6.80;99.90
29687;DHT22;16599;47.078;15.536;2024-03-23T01:05:50;6.80;99.90
29687;DHT22;16599;47.078;15.536;2024-03-23T01:08:16;6.80;99.90
29687;DHT22;16599;47.078;15.536;2024-03-23T01:10:42;6.70;99.90
29687;DHT22;16599;47.078;15.536;2024-03-23T01:13:07;6.90;99.90
29687;DHT22;16599;47.078;15.536;2024-03-23T01:15:34;7.10;99.90
29687;DHT22;16599;47.078;15.536;2024-03-23T01:17:59;6.90;99.90
29687;DHT22;16599;47.078;15.536;2024-03-23T01:20:25;6.50;99.90
29687;DHT22;16599;47.078;15.536;2024-03-23T01:22:51;6.20;99.90
29687;DHT22;16599;47.078;15.536;2024-03-23T01:25:17;6.10;99.90
29687;DHT22;16599;47.078;15.536;2024-03-23T01:27:42;6.10;99.90
29687;DHT22;16599;47.078;15.536;2024-03-23T01:30:08;5.90;99.90
29687;DHT22;16599;47.078;15.536;2024-03-23T01:32:34;5.90;99.90
29687;DHT22;16599;47.078;15.536;2024-03-23T01:35:00;5.80;99.90
29687;DHT22;16599;47.078;15.536;2024-03-23T01:37:26;5.60;99.90
29687;DHT22;16599;47.078;15.536;2024-03-23T01:39:52;5.80;99.90
29687;DHT22;16599;47.078;15.536;2024-03-23T01:42:17;5.60;99.90
29687;DHT22;16599;47.078;15.536;2024-03-23T01:44:43;5.50;99.90
29687;DHT22;16599;47.078;15.536;2024-03-23T01:47:09;5.70;99.90
29687;DHT22;16599;47.078;15.536;2024-03-23T01:49:35;5.80;99.90
29687;DHT22;16599;47.078;15.536;2024-03-23T01:52:01;5.50;99.90
29687;DHT22;16599;47.078;15.536;2024-03-23T01:54:27;5.20;99.90
29687;DHT22;16599;47.078;15.536;2024-03-23T01:56:54;5.20;99.90
29687;DHT22;16599;47.078;15.536;2024-03-23T01:59:20;5.30;99.90
29687;DHT22;16599;47.078;15.536;2024-03-23T02:01:45;5.20;99.90
29687;DHT22;16599;47.078;15.536;2024-03-23T02:04:11;5.30;99.90
29687;DHT22;16599;47.078;15.536;2024-03-23T02:06:37;5.40;99.90
29687;DHT22;16599;47.078;15.536;2024-03-23T02:09:03;5.30;99.90
29687;DHT22;16599;47.078;15.536;2024-03-23T02:11:29;5.50;99.90
29687;DHT22;16599;47.078;15.536;2024-03-23T02:13:55;5.60;99.90
29687;DHT22;16599;47.078;15.536;2024-03-23T02:16:20;5.50;99.90
29687;DHT22;16599;47.078;15.536;2024-03-23T02:18:46;5.20;99.90
29687;DHT22;16599;47.078;15.536;2024-03-23T02:21:12;5.40;99.90
29687;DHT22;16599;47.078;15.536;2024-03-23T02:23:38;5.20;99.90
29687;DHT22;16599;47.078;15.536;2024-03-23T02:26:03;5.10;99.90
29687;DHT22;16599;47.078;15.536;2024-03-23T02:28:29;5.20;99.90
29687;DHT22;16599;47.078;15.536;2024-03-23T02:30:55;5.40;99.90
29687;DHT22;16599;47.078;15.536;2024-03-23T02:33:21;5.40;99.90
29687;DHT22;16599;47.078;15.536;2024-03-23T02:35:47;5.40;99.90
29687;DHT22;16599;47.078;15.536;2024-03-23T02:38:12;5.40;99.90
29687;DHT22;16599;47.078;15.536;2024-03-23T02:40:38;5.40;99.90
29687;DHT22;16599;47.078;15.536;2024-03-23T02:43:04;5.30;99.90
29687;DHT22;16599;47.078;15.536;2024-03-23T02:45:30;5.20;99.90
29687;DHT22;16599;47.078;15.536;2024-03-23T02:47:56;5.20;99.90
29687;DHT22;16599;47.078;15.536;2024-03-23T02:50:22;5.10;99.90
29687;DHT22;16599;47.078;15.536;2024-03-23T02:52:48;5.00;99.90
29687;DHT22;16599;47.078;15.536;2024-03-23T02:55:14;5.10;99.90
29687;DHT22;16599;47.078;15.536;2024-03-23T02:57:40;5.30;99.90
29687;DHT22;16599;47.078;15.536;2024-03-23T03:00:06;5.30;99.90
29687;DHT22;16599;47.078;15.536;2024-03-23T03:02:33;5.10;99.90
29687;DHT22;16599;47.078;15.536;2024-03-23T03:04:58;5.20;99.90
29687;DHT22;16599;47.078;15.536;2024-03-23T03:07:24;4.90;99.90
29687;DHT22;16599;47.078;15.536;2024-03-23T03:09:51;4.40;99.90
29687;DHT22;16599;47.078;15.536;2024-03-23T03:12:16;4.30;99.90
29687;DHT22;16599;47.078;15.536;2024-03-23T03:14:42;4.30;99.90
29687;DHT22;16599;47.078;15.536;2024-03-23T03:17:08;4.60;99.90
29687;DHT22;16599;47.078;15.536;2024-03-23T03:19:34;4.50;99.90
29687;DHT22;16599;47.078;15.536;2024-03-23T03:22:00;4.30;99.90
29687;DHT22;16599;47.078;15.536;2024-03-23T03:24:25;4.50;99.90
29687;DHT22;16599;47.078;15.536;2024-03-23T03:26:51;4.80;99.90
29687;DHT22;16599;47.078;15.536;2024-03-23T03:29:17;4.80;99.90
29687;DHT22;16599;47.078;15.536;2024-03-23T03:31:43;4.60;99.90
29687;DHT22;16599;47.078;15.536;2024-03-23T03:34:09;4.60;99.90
29687;DHT22;16599;47.078;15.536;2024-03-23T03:36:37;4.60;99.90
29687;DHT22;16599;47.078;15.536;2024-03-23T03:39:02;4.20;99.90
29687;DHT22;16599;47.078;15.536;2024-03-23T03:41:30;4.20;99.90
29687;DHT22;16599;47.078;15.536;2024-03-23T03:43:56;4.50;99.90
29687;DHT22;16599;47.078;15.536;2024-03-23T03:46:27;4.20;99.90
29687;DHT22;16599;47.078;15.536;2024-03-23T03:48:53;4.00;99.90
29687;DHT22;16599;47.078;15.536;2024-03-23T03:51:19;4.00;99.90
29687;DHT22;16599;47.078;15.536;2024-03-23T03:53:45;4.20;99.90
29687;DHT22;16599;47.078;15.536;2024-03-23T03:56:11;4.40;99.90
29687;DHT22;16599;47.078;15.536;2024-03-23T03:58:37;4.20;99.90
29687;DHT22;16599;47.078;15.536;2024-03-23T04:01:03;4.30;99.90
29687;DHT22;16599;47.078;15.536;2024-03-23T04:03:28;4.30;99.90
29687;DHT22;16599;47.078;15.536;2024-03-23T04:05:54;4.20;99.90
29687;DHT22;16599;47.078;15.536;2024-03-23T04:08:20;4.10;99.90
29687;DHT22;16599;47.078;15.536;2024-03-23T04:10:46;4.00;99.90
29687;DHT22;16599;47.078;15.536;2024-03-23T04:13:12;4.20;99.90
29687;DHT22;16599;47.078;15.536;2024-03-23T04:15:38;4.50;99.90
29687;DHT22;16599;47.078;15.536;2024-03-23T04:18:05;4.50;99.90
29687;DHT22;16599;47.078;15.536;2024-03-23T04:20:31;4.40;99.90
29687;DHT22;16599;47.078;15.536;2024-03-23T04:23:00;4.50;99.90
29687;DHT22;16599;47.078;15.536;2024-03-23T04:25:26;4.50;99.90
29687;DHT22;16599;47.078;15.536;2024-03-23T04:27:52;4.40;99.90
29687;DHT22;16599;47.078;15.536;2024-03-23T04:30:18;4.40;99.90
29687;DHT22;16599;47.078;15.536;2024-03-23T04:32:44;4.50;99.90
29687;DHT22;16599;47.078;15.536;2024-03-23T04:35:10;4.70;99.90
29687;DHT22;16599;47.078;15.536;2024-03-23T04:37:36;4.60;99.90
29687;DHT22;16599;47.078;15.536;2024-03-23T04:40:03;4.60;99.90
29687;DHT22;16599;47.078;15.536;2024-03-23T04:42:29;4.40;99.90
29687;DHT22;16599;47.078;15.536;2024-03-23T04:44:55;4.50;99.90
29687;DHT22;16599;47.078;15.536;2024-03-23T04:47:21;4.30;99.90
29687;DHT22;16599;47.078;15.536;2024-03-23T04:49:47;4.20;99.90
29687;DHT22;16599;47.078;15.536;2024-03-23T04:52:13;4.20;99.90
29687;DHT22;16599;47.078;15.536;2024-03-23T04:54:38;4.00;99.90
29687;DHT22;16599;47.078;15.536;2024-03-23T04:57:06;4.00;99.90
29687;DHT22;16599;47.078;15.536;2024-03-23T04:59:32;4.20;99.90
29687;DHT22;16599;47.078;15.536;2024-03-23T05:01:59;4.40;99.90
29687;DHT22;16599;47.078;15.536;2024-03-23T05:04:25;4.40;99.90
29687;DHT22;16599;47.078;15.536;2024-03-23T05:06:51;4.50;99.90
29687;DHT22;16599;47.078;15.536;2024-03-23T05:09:17;4.60;99.90
29687;DHT22;16599;47.078;15.536;2024-03-23T05:11:42;4.80;99.90
29687;DHT22;16599;47.078;15.536;2024-03-23T05:14:08;4.80;99.90
29687;DHT22;16599;47.078;15.536;2024-03-23T05:16:34;4.70;99.90
29687;DHT22;16599;47.078;15.536;2024-03-23T05:19:00;4.90;99.90
29687;DHT22;16599;47.078;15.536;2024-03-23T05:21:26;4.90;99.90
29687;DHT22;16599;47.078;15.536;2024-03-23T05:23:54;4.80;99.90
29687;DHT22;16599;47.078;15.536;2024-03-23T05:26:21;4.80;99.90
29687;DHT22;16599;47.078;15.536;2024-03-23T05:28:47;4.90;99.90
29687;DHT22;16599;47.078;15.536;2024-03-23T05:31:22;5.10;99.90
29687;DHT22;16599;47.078;15.536;2024-03-23T05:33:48;5.20;99.90
29687;DHT22;16599;47.078;15.536;2024-03-23T05:36:13;5.30;99.90
29687;DHT22;16599;47.078;15.536;2024-03-23T05:38:39;5.20;99.90
29687;DHT22;16599;47.078;15.536;2024-03-23T05:41:05;5.30;99.90
29687;DHT22;16599;47.078;15.536;2024-03-23T05:43:31;5.30;99.90
29687;DHT22;16599;47.078;15.536;2024-03-23T05:45:57;5.40;99.90
29687;DHT22;16599;47.078;15.536;2024-03-23T05:48:23;5.50;99.90
29687;DHT22;16599;47.078;15.536;2024-03-23T05:50:49;5.70;99.90
29687;DHT22;16599;47.078;15.536;2024-03-23T05:53:15;5.80;99.90
29687;DHT22;16599;47.078;15.536;2024-03-23T05:55:41;5.90;99.90
29687;DHT22;16599;47.078;15.536;2024-03-23T05:58:07;6.00;99.90
29687;DHT22;16599;47.078;15.536;2024-03-23T06:00:33;6.10;99.90
29687;DHT22;16599;47.078;15.536;2024-03-23T06:02:59;6.20;99.90
29687;DHT22;16599;47.078;15.536;2024-03-23T06:05:25;6.20;99.90
29687;DHT22;16599;47.078;15.536;2024-03-23T06:07:51;6.20;99.90
29687;DHT22;16599;47.078;15.536;2024-03-23T06:10:16;6.30;99.90
29687;DHT22;16599;47.078;15.536;2024-03-23T06:12:42;6.40;99.90
29687;DHT22;16599;47.078;15.536;2024-03-23T06:15:08;6.40;99.90
29687;DHT22;16599;47.078;15.536;2024-03-23T06:17:37;6.60;99.90
29687;DHT22;16599;47.078;15.536;2024-03-23T06:20:03;6.50;99.90
29687;DHT22;16599;47.078;15.536;2024-03-23T06:22:29;6.60;99.90
29687;DHT22;16599;47.078;15.536;2024-03-23T06:24:54;6.60;99.90
29687;DHT22;16599;47.078;15.536;2024-03-23T06:27:20;6.80;99.90
29687;DHT22;16599;47.078;15.536;2024-03-23T06:29:46;7.00;99.90
29687;DHT22;16599;47.078;15.536;2024-03-23T06:32:12;7.10;99.90
29687;DHT22;16599;47.078;15.536;2024-03-23T06:34:38;7.20;99.90
29687;DHT22;16599;47.078;15.536;2024-03-23T06:37:03;7.30;99.90
29687;DHT22;16599;47.078;15.536;2024-03-23T06:39:29;7.50;99.90
29687;DHT22;16599;47.078;15.536;2024-03-23T06:41:55;7.70;99.90
29687;DHT22;16599;47.078;15.536;2024-03-23T06:44:22;7.80;99.90
29687;DHT22;16599;47.078;15.536;2024-03-23T06:46:48;7.90;99.90
29687;DHT22;16599;47.078;15.536;2024-03-23T06:49:14;8.00;99.90
29687;DHT22;16599;47.078;15.536;2024-03-23T06:51:41;8.10;99.90
29687;DHT22;16599;47.078;15.536;2024-03-23T06:54:06;8.30;99.90
29687;DHT22;16599;47.078;15.536;2024-03-23T06:56:32;8.40;99.90
29687;DHT22;16599;47.078;15.536;2024-03-23T06:58:58;8.40;99.90
29687;DHT22;16599;47.078;15.536;2024-03-23T07:01:24;8.50;99.90
29687;DHT22;16599;47.078;15.536;2024-03-23T07:03:50;8.70;99.90
29687;DHT22;16599;47.078;15.536;2024-03-23T07:06:16;8.70;99.90
29687;DHT22;16599;47.078;15.536;2024-03-23T07:08:41;8.70;99.90
29687;DHT22;16599;47.078;15.536;2024-03-23T07:11:07;8.80;99.90
29687;DHT22;16599;47.078;15.536;2024-03-23T07:13:33;8.70;99.90
29687;DHT22;16599;47.078;15.536;2024-03-23T07:15:59;8.80;99.90
29687;DHT22;16599;47.078;15.536;2024-03-23T07:18:25;8.90;99.90
29687;DHT22;16599;47.078;15.536;2024-03-23T07:20:55;9.00;99.90
29687;DHT22;16599;47.078;15.536;2024-03-23T07:23:22;9.00;99.90
29687;DHT22;16599;47.078;15.536;2024-03-23T07:26:01;9.10;99.90
29687;DHT22;16599;47.078;15.536;2024-03-23T07:28:27;9.10;99.90
29687;DHT22;16599;47.078;15.536;2024-03-23T07:31:03;9.20;99.90
29687;DHT22;16599;47.078;15.536;2024-03-23T07:33:29;9.20;99.90
29687;DHT22;16599;47.078;15.536;2024-03-23T07:35:55;9.30;99.90
29687;DHT22;16599;47.078;15.536;2024-03-23T07:38:21;9.30;99.90
29687;DHT22;16599;47.078;15.536;2024-03-23T07:40:47;9.30;99.90
29687;DHT22;16599;47.078;15.536;2024-03-23T07:43:15;9.40;99.90
29687;DHT22;16599;47.078;15.536;2024-03-23T07:45:41;9.40;99.10
29687;DHT22;16599;47.078;15.536;2024-03-23T07:48:07;9.40;98.60
29687;DHT22;16599;47.078;15.536;2024-03-23T07:50:35;9.50;99.10
29687;DHT22;16599;47.078;15.536;2024-03-23T07:53:05;9.50;99.80
29687;DHT22;16599;47.078;15.536;2024-03-23T07:55:33;9.60;97.90
29687;DHT22;16599;47.078;15.536;2024-03-23T07:58:02;9.60;98.50
29687;DHT22;16599;47.078;15.536;2024-03-23T08:00:28;9.70;98.70
29687;DHT22;16599;47.078;15.536;2024-03-23T08:02:54;9.80;99.10
29687;DHT22;16599;47.078;15.536;2024-03-23T08:05:19;9.80;98.50
29687;DHT22;16599;47.078;15.536;2024-03-23T08:07:45;9.90;98.40
29687;DHT22;16599;47.078;15.536;2024-03-23T08:10:11;10.00;98.10
29687;DHT22;16599;47.078;15.536;2024-03-23T08:12:38;10.10;98.40
29687;DHT22;16599;47.078;15.536;2024-03-23T08:15:04;10.20;98.50
29687;DHT22;16599;47.078;15.536;2024-03-23T08:17:30;10.20;98.70
29687;DHT22;16599;47.078;15.536;2024-03-23T08:19:55;10.30;97.90
29687;DHT22;16599;47.078;15.536;2024-03-23T08:22:22;10.30;97.70
29687;DHT22;16599;47.078;15.536;2024-03-23T08:24:48;10.40;96.90
29687;DHT22;16599;47.078;15.536;2024-03-23T08:27:13;10.50;95.80
29687;DHT22;16599;47.078;15.536;2024-03-23T08:29:39;10.60;95.70
29687;DHT22;16599;47.078;15.536;2024-03-23T08:32:05;10.70;96.50
29687;DHT22;16599;47.078;15.536;2024-03-23T08:34:31;10.80;96.20
29687;DHT22;16599;47.078;15.536;2024-03-23T08:36:56;10.90;95.40
29687;DHT22;16599;47.078;15.536;2024-03-23T08:39:22;11.00;94.70
29687;DHT22;16599;47.078;15.536;2024-03-23T08:41:48;11.00;94.60
29687;DHT22;16599;47.078;15.536;2024-03-23T08:44:14;11.10;94.00
29687;DHT22;16599;47.078;15.536;2024-03-23T08:46:40;11.20;94.00
29687;DHT22;16599;47.078;15.536;2024-03-23T08:49:05;11.20;94.30
29687;DHT22;16599;47.078;15.536;2024-03-23T08:51:31;11.30;93.90
29687;DHT22;16599;47.078;15.536;2024-03-23T08:53:57;11.40;93.50
29687;DHT22;16599;47.078;15.536;2024-03-23T08:56:23;11.70;93.50
29687;DHT22;16599;47.078;15.536;2024-03-23T08:58:48;11.90;92.10
29687;DHT22;16599;47.078;15.536;2024-03-23T09:01:14;11.90;92.70
29687;DHT22;16599;47.078;15.536;2024-03-23T09:03:40;11.90;91.60
29687;DHT22;16599;47.078;15.536;2024-03-23T09:06:07;12.10;92.20
29687;DHT22;16599;47.078;15.536;2024-03-23T09:08:32;12.20;91.00
29687;DHT22;16599;47.078;15.536;2024-03-23T09:11:03;12.30;90.40
29687;DHT22;16599;47.078;15.536;2024-03-23T09:13:29;12.60;90.00
29687;DHT22;16599;47.078;15.536;2024-03-23T09:15:54;12.80;89.30
29687;DHT22;16599;47.078;15.536;2024-03-23T09:18:22;13.10;90.20
29687;DHT22;16599;47.078;15.536;2024-03-23T09:20:48;13.40;87.70
29687;DHT22;16599;47.078;15.536;2024-03-23T09:23:13;13.40;85.40
29687;DHT22;16599;47.078;15.536;2024-03-23T09:25:39;13.60;88.30
29687;DHT22;16599;47.078;15.536;2024-03-23T09:28:05;13.80;89.80
29687;DHT22;16599;47.078;15.536;2024-03-23T09:30:32;14.00;85.70
29687;DHT22;16599;47.078;15.536;2024-03-23T09:32:59;14.00;84.90
29687;DHT22;16599;47.078;15.536;2024-03-23T09:35:24;14.30;85.70
29687;DHT22;16599;47.078;15.536;2024-03-23T09:37:50;14.70;83.40
29687;DHT22;16599;47.078;15.536;2024-03-23T09:40:16;14.40;82.00
29687;DHT22;16599;47.078;15.536;2024-03-23T09:42:42;14.50;82.50
29687;DHT22;16599;47.078;15.536;2024-03-23T09:45:20;14.70;82.30
29687;DHT22;16599;47.078;15.536;2024-03-23T09:47:47;14.70;80.30
29687;DHT22;16599;47.078;15.536;2024-03-23T09:50:13;14.90;81.10
29687;DHT22;16599;47.078;15.536;2024-03-23T09:52:39;14.90;79.00
29687;DHT22;16599;47.078;15.536;2024-03-23T09:55:07;14.80;77.60
29687;DHT22;16599;47.078;15.536;2024-03-23T09:57:34;14.90;77.50
29687;DHT22;16599;47.078;15.536;2024-03-23T10:00:00;15.20;78.50
29687;DHT22;16599;47.078;15.536;2024-03-23T10:02:26;15.70;77.50
29687;DHT22;16599;47.078;15.536;2024-03-23T10:04:51;16.00;75.60
29687;DHT22;16599;47.078;15.536;2024-03-23T10:07:21;15.90;71.30
29687;DHT22;16599;47.078;15.536;2024-03-23T10:09:50;15.80;71.20
29687;DHT22;16599;47.078;15.536;2024-03-23T10:12:19;15.90;74.80
29687;DHT22;16599;47.078;15.536;2024-03-23T10:14:45;15.90;70.70
29687;DHT22;16599;47.078;15.536;2024-03-23T10:17:12;16.00;70.90
29687;DHT22;16599;47.078;15.536;2024-03-23T10:19:40;16.00;71.40
29687;DHT22;16599;47.078;15.536;2024-03-23T10:22:08;16.00;72.40
29687;DHT22;16599;47.078;15.536;2024-03-23T10:24:33;16.30;73.20
29687;DHT22;16599;47.078;15.536;2024-03-23T10:26:59;16.20;72.00
29687;DHT22;16599;47.078;15.536;2024-03-23T10:29:25;16.30;72.60
29687;DHT22;16599;47.078;15.536;2024-03-23T10:31:53;16.50;71.40
29687;DHT22;16599;47.078;15.536;2024-03-23T10:34:25;16.20;71.90
29687;DHT22;16599;47.078;15.536;2024-03-23T10:36:55;16.30;70.80
29687;DHT22;16599;47.078;15.536;2024-03-23T10:39:22;16.50;70.90
29687;DHT22;16599;47.078;15.536;2024-03-23T10:41:52;16.70;70.20
29687;DHT22;16599;47.078;15.536;2024-03-23T10:44:19;17.20;71.00
29687;DHT22;16599;47.078;15.536;2024-03-23T10:46:45;17.00;68.50
29687;DHT22;16599;47.078;15.536;2024-03-23T10:49:10;16.80;66.60
29687;DHT22;16599;47.078;15.536;2024-03-23T10:51:37;16.50;66.60
29687;DHT22;16599;47.078;15.536;2024-03-23T10:54:06;16.10;71.30
29687;DHT22;16599;47.078;15.536;2024-03-23T10:56:32;16.40;71.60
29687;DHT22;16599;47.078;15.536;2024-03-23T10:59:01;17.00;66.60
29687;DHT22;16599;47.078;15.536;2024-03-23T11:01:28;17.00;65.00
29687;DHT22;16599;47.078;15.536;2024-03-23T11:03:54;17.10;63.30
29687;DHT22;16599;47.078;15.536;2024-03-23T11:06:38;17.10;62.30
29687;DHT22;16599;47.078;15.536;2024-03-23T11:09:37;17.30;62.90
29687;DHT22;16599;47.078;15.536;2024-03-23T11:11:54;17.30;66.30
29687;DHT22;16599;47.078;15.536;2024-03-23T11:14:23;17.30;65.10
29687;DHT22;16599;47.078;15.536;2024-03-23T11:17:10;17.80;66.90
29687;DHT22;16599;47.078;15.536;2024-03-23T11:19:36;18.00;67.80
29687;DHT22;16599;47.078;15.536;2024-03-23T11:22:02;18.40;65.90
29687;DHT22;16599;47.078;15.536;2024-03-23T11:24:29;18.00;63.20
29687;DHT22;16599;47.078;15.536;2024-03-23T11:26:54;17.70;65.60
29687;DHT22;16599;47.078;15.536;2024-03-23T11:29:20;17.80;64.30
29687;DHT22;16599;47.078;15.536;2024-03-23T11:31:47;18.20;67.40
29687;DHT22;16599;47.078;15.536;2024-03-23T11:34:13;18.40;61.70
29687;DHT22;16599;47.078;15.536;2024-03-23T11:36:40;18.50;61.40
29687;DHT22;16599;47.078;15.536;2024-03-23T11:39:16;18.20;61.40
29687;DHT22;16599;47.078;15.536;2024-03-23T11:46:43;18.10;63.00
29687;DHT22;16599;47.078;15.536;2024-03-23T11:49:25;18.20;63.80
29687;DHT22;16599;47.078;15.536;2024-03-23T11:51:56;18.60;61.40
29687;DHT22;16599;47.078;15.536;2024-03-23T11:54:22;18.30;59.80
29687;DHT22;16599;47.078;15.536;2024-03-23T11:56:55;18.30;59.70
29687;DHT22;16599;47.078;15.536;2024-03-23T11:59:33;18.20;61.70
29687;DHT22;16599;47.078;15.536;2024-03-23T12:01:59;18.50;64.00
29687;DHT22;16599;47.078;15.536;2024-03-23T12:04:26;18.70;62.00
29687;DHT22;16599;47.078;15.536;2024-03-23T12:06:51;18.90;59.80
29687;DHT22;16599;47.078;15.536;2024-03-23T12:09:34;18.60;59.20
29687;DHT22;16599;47.078;15.536;2024-03-23T12:12:05;17.80;60.90
29687;DHT22;16599;47.078;15.536;2024-03-23T12:14:30;18.50;60.60
29687;DHT22;16599;47.078;15.536;2024-03-23T12:17:06;18.80;61.60
29687;DHT22;16599;47.078;15.536;2024-03-23T12:19:32;18.80;58.90
29687;DHT22;16599;47.078;15.536;2024-03-23T12:21:58;18.80;59.00
29687;DHT22;16599;47.078;15.536;2024-03-23T12:24:24;19.00;59.40
29687;DHT22;16599;47.078;15.536;2024-03-23T12:26:50;19.00;60.10
29687;DHT22;16599;47.078;15.536;2024-03-23T12:29:16;19.00;59.30
29687;DHT22;16599;47.078;15.536;2024-03-23T12:31:43;18.70;62.40
29687;DHT22;16599;47.078;15.536;2024-03-23T12:34:09;19.10;59.00
29687;DHT22;16599;47.078;15.536;2024-03-23T12:36:35;19.00;59.80
29687;DHT22;16599;47.078;15.536;2024-03-23T12:39:01;18.90;59.70
29687;DHT22;16599;47.078;15.536;2024-03-23T12:41:27;19.10;59.30
29687;DHT22;16599;47.078;15.536;2024-03-23T12:43:52;19.20;58.00
29687;DHT22;16599;47.078;15.536;2024-03-23T12:46:18;19.50;59.70
29687;DHT22;16599;47.078;15.536;2024-03-23T12:48:44;19.30;57.60
29687;DHT22;16599;47.078;15.536;2024-03-23T12:51:10;19.00;57.60
29687;DHT22;16599;47.078;15.536;2024-03-23T12:53:36;18.80;59.60
29687;DHT22;16599;47.078;15.536;2024-03-23T12:56:01;18.40;60.70
29687;DHT22;16599;47.078;15.536;2024-03-23T12:58:28;18.80;60.10
29687;DHT22;16599;47.078;15.536;2024-03-23T13:00:54;18.80;59.20
29687;DHT22;16599;47.078;15.536;2024-03-23T13:03:20;18.80;57.60
29687;DHT22;16599;47.078;15.536;2024-03-23T13:05:51;18.90;60.90
29687;DHT22;16599;47.078;15.536;2024-03-23T13:08:17;19.10;59.20
29687;DHT22;16599;47.078;15.536;2024-03-23T13:10:43;18.80;62.00
29687;DHT22;16599;47.078;15.536;2024-03-23T13:13:08;19.20;58.70
29687;DHT22;16599;47.078;15.536;2024-03-23T13:15:34;19.00;60.00
29687;DHT22;16599;47.078;15.536;2024-03-23T13:18:00;19.20;62.60
29687;DHT22;16599;47.078;15.536;2024-03-23T13:20:26;19.00;59.60
29687;DHT22;16599;47.078;15.536;2024-03-23T13:22:52;19.10;58.80
29687;DHT22;16599;47.078;15.536;2024-03-23T13:25:18;19.40;58.00
29687;DHT22;16599;47.078;15.536;2024-03-23T13:27:44;19.30;56.60
29687;DHT22;16599;47.078;15.536;2024-03-23T13:30:10;19.00;58.20
29687;DHT22;16599;47.078;15.536;2024-03-23T13:32:36;19.10;58.00
29687;DHT22;16599;47.078;15.536;2024-03-23T13:35:02;19.40;57.80
29687;DHT22;16599;47.078;15.536;2024-03-23T13:37:28;19.70;57.70
29687;DHT22;16599;47.078;15.536;2024-03-23T13:39:53;19.50;57.00
29687;DHT22;16599;47.078;15.536;2024-03-23T13:42:19;19.70;56.80
29687;DHT22;16599;47.078;15.536;2024-03-23T13:44:45;19.70;56.40
29687;DHT22;16599;47.078;15.536;2024-03-23T13:47:11;19.50;58.10
29687;DHT22;16599;47.078;15.536;2024-03-23T13:49:36;19.70;55.30
29687;DHT22;16599;47.078;15.536;2024-03-23T13:52:02;19.80;56.80
29687;DHT22;16599;47.078;15.536;2024-03-23T13:54:28;20.00;58.20
29687;DHT22;16599;47.078;15.536;2024-03-23T13:56:54;20.00;57.20
29687;DHT22;16599;47.078;15.536;2024-03-23T13:59:20;20.00;57.90
29687;DHT22;16599;47.078;15.536;2024-03-23T14:01:48;19.60;56.60
29687;DHT22;16599;47.078;15.536;2024-03-23T14:04:14;19.10;56.70
29687;DHT22;16599;47.078;15.536;2024-03-23T14:06:47;18.70;58.00
29687;DHT22;16599;47.078;15.536;2024-03-23T14:09:13;18.50;58.70
29687;DHT22;16599;47.078;15.536;2024-03-23T14:11:59;18.50;59.80
29687;DHT22;16599;47.078;15.536;2024-03-23T14:14:25;18.70;59.00
29687;DHT22;16599;47.078;15.536;2024-03-23T14:16:51;19.00;58.70
29687;DHT22;16599;47.078;15.536;2024-03-23T14:19:18;19.40;58.60
29687;DHT22;16599;47.078;15.536;2024-03-23T14:21:44;19.50;58.10
29687;DHT22;16599;47.078;15.536;2024-03-23T14:24:10;19.60;58.00
29687;DHT22;16599;47.078;15.536;2024-03-23T14:26:36;19.50;58.40
29687;DHT22;16599;47.078;15.536;2024-03-23T14:29:02;19.40;58.50
29687;DHT22;16599;47.078;15.536;2024-03-23T14:31:29;19.30;57.60
29687;DHT22;16599;47.078;15.536;2024-03-23T14:33:54;19.00;59.60
29687;DHT22;16599;47.078;15.536;2024-03-23T14:36:20;18.90;58.40
29687;DHT22;16599;47.078;15.536;2024-03-23T14:38:47;19.00;59.40
29687;DHT22;16599;47.078;15.536;2024-03-23T14:41:13;19.10;59.40
29687;DHT22;16599;47.078;15.536;2024-03-23T14:43:39;19.00;57.60
29687;DHT22;16599;47.078;15.536;2024-03-23T14:46:11;18.70;57.60
29687;DHT22;16599;47.078;15.536;2024-03-23T14:48:38;18.90;58.60
29687;DHT22;16599;47.078;15.536;2024-03-23T14:51:04;19.10;57.20
29687;DHT22;16599;47.078;15.536;2024-03-23T14:53:31;19.00;57.20
29687;DHT22;16599;47.078;15.536;2024-03-23T14:55:57;18.90;57.80
29687;DHT22;16599;47.078;15.536;2024-03-23T14:58:23;18.70;58.30
29687;DHT22;16599;47.078;15.536;2024-03-23T15:00:50;18.70;59.40
29687;DHT22;16599;47.078;15.536;2024-03-23T15:03:15;18.60;59.00
29687;DHT22;16599;47.078;15.536;2024-03-23T15:05:41;18.50;58.00
29687;DHT22;16599;47.078;15.536;2024-03-23T15:08:07;18.40;58.40
29687;DHT22;16599;47.078;15.536;2024-03-23T15:10:34;18.40;58.50
29687;DHT22;16599;47.078;15.536;2024-03-23T15:12:59;18.20;57.50
29687;DHT22;16599;47.078;15.536;2024-03-23T15:15:25;18.10;58.10
29687;DHT22;16599;47.078;15.536;2024-03-23T15:17:51;18.10;59.50
29687;DHT22;16599;47.078;15.536;2024-03-23T15:20:17;18.00;57.50
29687;DHT22;16599;47.078;15.536;2024-03-23T15:22:43;17.90;58.60
29687;DHT22;16599;47.078;15.536;2024-03-23T15:25:09;17.90;59.10
29687;DHT22;16599;47.078;15.536;2024-03-23T15:27:35;17.70;59.20
29687;DHT22;16599;47.078;15.536;2024-03-23T15:30:01;17.60;58.90
29687;DHT22;16599;47.078;15.536;2024-03-23T15:32:27;17.40;60.60
29687;DHT22;16599;47.078;15.536;2024-03-23T15:34:52;16.60;62.40
29687;DHT22;16599;47.078;15.536;2024-03-23T15:37:18;16.20;65.00
29687;DHT22;16599;47.078;15.536;2024-03-23T15:39:44;15.90;65.60
29687;DHT22;16599;47.078;15.536;2024-03-23T15:42:10;15.40;68.30
29687;DHT22;16599;47.078;15.536;2024-03-23T15:44:36;15.00;68.50
29687;DHT22;16599;47.078;15.536;2024-03-23T15:47:01;14.50;70.10
29687;DHT22;16599;47.078;15.536;2024-03-23T15:49:30;14.30;71.10
29687;DHT22;16599;47.078;15.536;2024-03-23T15:52:00;14.00;72.70
29687;DHT22;16599;47.078;15.536;2024-03-23T15:54:42;13.80;73.40
29687;DHT22;16599;47.078;15.536;2024-03-23T15:57:26;13.40;73.80
29687;DHT22;16599;47.078;15.536;2024-03-23T15:59:52;13.20;74.60
29687;DHT22;16599;47.078;15.536;2024-03-23T16:02:18;12.50;76.70
29687;DHT22;16599;47.078;15.536;2024-03-23T16:04:44;12.50;77.10
29687;DHT22;16599;47.078;15.536;2024-03-23T16:07:11;12.10;79.40
29687;DHT22;16599;47.078;15.536;2024-03-23T16:09:37;11.80;79.60
29687;DHT22;16599;47.078;15.536;2024-03-23T16:12:03;11.80;81.20
29687;DHT22;16599;47.078;15.536;2024-03-23T16:14:29;11.50;81.70
29687;DHT22;16599;47.078;15.536;2024-03-23T16:16:55;11.00;81.40
29687;DHT22;16599;47.078;15.536;2024-03-23T16:19:20;10.50;81.30